createdAt,value
2022-08-27T00:01:46.835Z,22.67
2022-08-27T00:04:13.972Z,22.63
2022-08-27T00:06:41.152Z,22.61
2022-08-27T00:09:08.346Z,22.49
2022-08-27T00:11:37.334Z,22.45
2022-08-27T00:14:05.299Z,22.55
2022-08-27T00:16:32.863Z,22.58
2022-08-27T00:19:00.063Z,22.42
2022-08-27T00:21:27.208Z,22.40
2022-08-27T00:23:54.225Z,22.35
2022-08-27T00:26:21.425Z,22.36
2022-08-27T00:28:48.826Z,22.33
2022-08-27T00:31:16.057Z,22.30
2022-08-27T00:33:43.695Z,22.24
2022-08-27T00:36:12.721Z,22.50
2022-08-27T00:38:41.453Z,22.29
2022-08-27T00:41:12.014Z,22.29
2022-08-27T00:44:00.335Z,22.30
2022-08-27T00:46:47.019Z,22.18
2022-08-27T00:49:32.657Z,22.12
2022-08-27T00:52:27.328Z,22.27
2022-08-27T00:55:08.944Z,22.04
2022-08-27T00:57:39.164Z,22.19
2022-08-27T01:00:12.237Z,22.09
2022-08-27T01:02:39.393Z,22.18
2022-08-27T01:05:12.121Z,22.19
2022-08-27T01:07:45.613Z,22.17
2022-08-27T01:10:18.555Z,22.26
2022-08-27T01:12:53.517Z,22.29
2022-08-27T01:15:23.897Z,22.13
2022-08-27T01:17:51.945Z,22.15
2022-08-27T01:20:30.181Z,22.07
2022-08-27T01:23:41.800Z,22.22
2022-08-27T01:26:13.271Z,22.08
2022-08-27T01:28:41.215Z,21.94
2022-08-27T01:31:10.786Z,21.71
2022-08-27T01:33:39.214Z,21.75
2022-08-27T01:36:08.289Z,21.69
2022-08-27T01:38:35.583Z,21.66
2022-08-27T01:41:03.887Z,21.67
2022-08-27T01:43:31.883Z,21.61
2022-08-27T01:46:00.472Z,21.57
2022-08-27T01:48:27.512Z,21.56
2022-08-27T01:50:54.620Z,21.64
2022-08-27T01:53:26.137Z,21.70
2022-08-27T01:55:54.717Z,21.72
2022-08-27T01:58:27.390Z,21.68
2022-08-27T02:01:02.938Z,21.45
2022-08-27T02:03:30.116Z,21.52
2022-08-27T02:05:57.886Z,21.38
2022-08-27T02:08:24.985Z,21.35
2022-08-27T02:10:52.332Z,21.40
2022-08-27T02:13:19.414Z,21.49
2022-08-27T02:15:46.747Z,21.38
2022-08-27T02:18:15.093Z,21.20
2022-08-27T02:20:45.480Z,21.13
2022-08-27T02:23:13.627Z,21.36
2022-08-27T02:25:41.657Z,21.03
2022-08-27T02:28:09.645Z,21.10
2022-08-27T02:30:37.721Z,20.89
2022-08-27T02:33:06.048Z,20.98
2022-08-27T02:35:39.015Z,20.92
2022-08-27T02:38:08.164Z,20.86
2022-08-27T02:40:36.249Z,20.64
2022-08-27T02:43:04.599Z,20.66
2022-08-27T02:45:31.699Z,20.59
2022-08-27T02:47:58.799Z,20.56
2022-08-27T02:50:27.482Z,20.51
2022-08-27T02:52:54.949Z,20.48
2022-08-27T02:55:22.793Z,20.45
2022-08-27T02:57:49.872Z,20.37
2022-08-27T03:00:21.157Z,20.57
2022-08-27T03:02:49.202Z,20.54
2022-08-27T03:05:17.944Z,20.37
2022-08-27T03:07:45.567Z,20.35
2022-08-27T03:10:17.029Z,20.39
2022-08-27T03:12:45.298Z,20.38
2022-08-27T03:15:18.744Z,20.45
2022-08-27T03:18:04.580Z,20.48
2022-08-27T03:20:32.032Z,20.48
2022-08-27T03:23:00.391Z,20.35
2022-08-27T03:25:27.958Z,20.08
2022-08-27T03:27:55.105Z,20.26
2022-08-27T03:30:24.093Z,20.38
2022-08-27T03:32:51.886Z,20.28
2022-08-27T03:35:20.783Z,19.96
2022-08-27T03:37:48.219Z,20.18
2022-08-27T03:40:17.032Z,20.22
2022-08-27T03:42:44.316Z,20.18
2022-08-27T03:45:12.096Z,20.16
2022-08-27T03:47:39.423Z,20.20
2022-08-27T03:50:08.107Z,20.07
2022-08-27T03:52:37.183Z,20.15
2022-08-27T03:55:07.713Z,20.26
2022-08-27T03:57:34.830Z,20.22
2022-08-27T04:00:02.028Z,20.51
2022-08-27T04:02:29.749Z,20.70
2022-08-27T04:04:57.888Z,20.70
2022-08-27T04:07:25.279Z,20.82
2022-08-27T04:09:52.349Z,21.31
2022-08-27T04:12:19.615Z,21.73
2022-08-27T04:14:46.776Z,22.34
2022-08-27T04:17:14.123Z,22.67
2022-08-27T04:19:41.174Z,22.95
2022-08-27T04:22:08.844Z,23.53
2022-08-27T04:24:37.872Z,24.12
2022-08-27T04:27:06.457Z,24.46
2022-08-27T04:29:34.328Z,24.64
2022-08-27T04:32:02.098Z,23.91
2022-08-27T04:34:29.369Z,23.60
2022-08-27T04:36:57.420Z,23.94
2022-08-27T04:39:26.514Z,23.91
2022-08-27T04:41:56.902Z,23.79
2022-08-27T04:44:30.807Z,24.37
2022-08-27T04:47:01.655Z,25.32
2022-08-27T04:49:29.986Z,26.78
2022-08-27T04:51:59.057Z,28.31
2022-08-27T04:54:32.907Z,29.25
2022-08-27T04:57:04.890Z,30.12
2022-08-27T04:59:33.271Z,30.85
2022-08-27T05:02:04.593Z,31.69
2022-08-27T05:04:34.582Z,32.19
2022-08-27T05:07:02.339Z,32.49
2022-08-27T05:09:29.555Z,33.31
2022-08-27T05:11:56.827Z,33.75
2022-08-27T05:14:25.483Z,34.45
2022-08-27T05:16:52.558Z,34.24
2022-08-27T05:19:19.724Z,34.56
2022-08-27T05:21:50.988Z,34.83
2022-08-27T05:24:18.507Z,35.67
2022-08-27T05:26:46.252Z,35.92
2022-08-27T05:29:14.299Z,35.64
2022-08-27T05:31:41.805Z,37.45
2022-08-27T05:34:10.665Z,37.56
2022-08-27T05:36:47.834Z,38.18
2022-08-27T05:39:17.287Z,38.48
2022-08-27T05:41:44.294Z,39.11
2022-08-27T05:44:39.504Z,38.86
2022-08-27T05:46:58.752Z,40.16
2022-08-27T05:49:26.105Z,40.29
2022-08-27T05:51:53.225Z,40.14
2022-08-27T05:54:20.416Z,38.72
2022-08-27T05:56:50.121Z,40.12
2022-08-27T05:59:37.209Z,40.74
2022-08-27T06:02:06.311Z,39.73
2022-08-27T06:04:33.810Z,39.14
2022-08-27T06:07:00.980Z,40.09
2022-08-27T06:09:29.750Z,39.22
2022-08-27T06:12:01.622Z,36.64
2022-08-27T06:14:29.254Z,35.78
2022-08-27T06:16:57.088Z,36.52
2022-08-27T06:19:24.521Z,37.68
2022-08-27T06:22:00.656Z,40.43
2022-08-27T06:24:39.098Z,41.41
2022-08-27T06:27:06.500Z,42.39
2022-08-27T06:29:35.246Z,43.36
2022-08-27T06:32:02.656Z,42.59
2022-08-27T06:34:29.821Z,39.75
2022-08-27T06:36:57.028Z,37.42
2022-08-27T06:39:24.126Z,36.22
2022-08-27T06:41:51.300Z,35.58
2022-08-27T06:44:18.552Z,35.06
2022-08-27T06:46:45.896Z,35.95
2022-08-27T06:49:13.711Z,35.70
2022-08-27T06:51:47.244Z,35.60
2022-08-27T06:54:16.829Z,36.16
2022-08-27T06:56:45.686Z,39.01
2022-08-27T06:59:17.531Z,40.46
2022-08-27T07:01:49.561Z,40.83
2022-08-27T07:04:32.605Z,41.61
2022-08-27T07:07:02.319Z,41.66
2022-08-27T07:09:32.158Z,41.73
2022-08-27T07:12:00.240Z,42.09
2022-08-27T07:14:27.509Z,42.39
2022-08-27T07:16:55.494Z,42.13
2022-08-27T07:19:22.695Z,41.89
2022-08-27T07:21:50.755Z,42.92
2022-08-27T07:24:19.146Z,42.27
2022-08-27T07:26:46.960Z,41.52
2022-08-27T07:29:15.266Z,42.59
2022-08-27T07:31:43.851Z,43.30
2022-08-27T07:34:12.121Z,42.55
2022-08-27T07:36:41.142Z,41.90
2022-08-27T07:39:09.312Z,42.52
2022-08-27T07:41:56.854Z,41.63
2022-08-27T07:44:30.973Z,41.41
2022-08-27T07:47:00.733Z,39.98
2022-08-27T07:49:29.528Z,40.45
2022-08-27T07:51:56.705Z,39.98
2022-08-27T07:54:25.344Z,38.26
2022-08-27T07:56:55.124Z,37.28
2022-08-27T07:59:27.465Z,37.99
2022-08-27T08:01:56.464Z,39.14
2022-08-27T08:04:25.159Z,40.32
2022-08-27T08:06:53.030Z,39.28
2022-08-27T08:09:22.445Z,40.62
2022-08-27T08:11:50.669Z,40.53
2022-08-27T08:14:19.811Z,40.86
2022-08-27T08:16:46.942Z,40.42
2022-08-27T08:19:14.250Z,40.10
2022-08-27T08:21:42.810Z,39.01
2022-08-27T08:24:10.269Z,39.22
2022-08-27T08:26:37.333Z,40.01
2022-08-27T08:29:05.305Z,39.61
2022-08-27T08:31:32.924Z,38.96
2022-08-27T08:34:00.974Z,39.81
2022-08-27T08:36:28.054Z,40.05
2022-08-27T08:38:55.477Z,38.71
2022-08-27T08:41:31.017Z,38.82
2022-08-27T08:44:04.804Z,38.15
2022-08-27T08:47:12.233Z,38.31
2022-08-27T08:49:51.790Z,38.69
2022-08-27T08:52:52.075Z,38.42
2022-08-27T08:55:48.646Z,37.85
2022-08-27T08:58:31.031Z,37.40
2022-08-27T09:01:01.292Z,37.68
2022-08-27T09:03:30.081Z,36.80
2022-08-27T09:06:10.435Z,37.38
2022-08-27T09:08:42.424Z,37.20
2022-08-27T09:11:21.857Z,37.15
2022-08-27T09:13:57.299Z,37.77
2022-08-27T09:16:24.470Z,37.47
2022-08-27T09:18:54.607Z,37.20
2022-08-27T09:21:44.299Z,37.22
2022-08-27T09:24:37.180Z,38.34
2022-08-27T09:27:05.029Z,38.55
2022-08-27T09:29:32.429Z,38.09
2022-08-27T09:32:09.139Z,38.60
2022-08-27T09:34:42.600Z,37.95
2022-08-27T09:37:22.395Z,37.51
2022-08-27T09:40:13.298Z,37.80
2022-08-27T09:42:53.491Z,36.61
2022-08-27T09:45:25.252Z,37.35
2022-08-27T09:48:02.754Z,36.84
2022-08-27T09:50:43.919Z,37.18
2022-08-27T09:53:46.199Z,37.07
2022-08-27T09:56:39.390Z,37.26
2022-08-27T09:59:22.806Z,37.11
2022-08-27T10:02:16.927Z,36.72
2022-08-27T10:04:58.783Z,36.12
2022-08-27T10:07:38.092Z,35.84
2022-08-27T10:10:11.179Z,35.60
2022-08-27T10:13:22.128Z,37.00
2022-08-27T10:16:47.391Z,37.03
2022-08-27T10:19:44.225Z,37.36
2022-08-27T10:22:41.442Z,37.63
2022-08-27T10:25:41.350Z,37.09
2022-08-27T10:28:29.092Z,36.63
2022-08-27T10:31:21.364Z,36.57
2022-08-27T10:34:12.296Z,36.74
2022-08-27T10:37:07.922Z,37.27
2022-08-27T10:40:06.047Z,37.59
2022-08-27T10:43:02.470Z,37.16
2022-08-27T10:46:16.526Z,36.65
2022-08-27T10:48:57.938Z,36.59
2022-08-27T10:51:35.837Z,37.41
2022-08-27T10:54:26.653Z,37.56
2022-08-27T10:57:39.919Z,36.94
2022-08-27T11:00:23.426Z,36.90
2022-08-27T11:03:15.149Z,35.81
2022-08-27T11:05:50.578Z,36.11
2022-08-27T11:08:44.945Z,35.87
2022-08-27T11:12:10.445Z,36.14
2022-08-27T11:14:32.662Z,36.72
2022-08-27T11:17:34.851Z,36.37
2022-08-27T11:20:15.926Z,35.50
2022-08-27T11:22:56.645Z,35.04
2022-08-27T11:25:59.609Z,35.20
2022-08-27T11:28:52.799Z,35.32
2022-08-27T11:31:38.424Z,35.47
2022-08-27T11:34:40.162Z,35.24
2022-08-27T11:37:12.530Z,34.62
2022-08-27T11:39:51.740Z,34.26
2022-08-27T11:42:44.510Z,34.49
2022-08-27T11:45:29.871Z,34.17
2022-08-27T11:48:14.891Z,34.47
2022-08-27T11:50:52.788Z,34.28
2022-08-27T11:53:29.173Z,34.48
2022-08-27T11:55:56.784Z,34.20
2022-08-27T11:58:30.629Z,33.67
2022-08-27T12:01:04.504Z,33.51
2022-08-27T12:03:35.401Z,33.79
2022-08-27T12:06:09.484Z,33.77
2022-08-27T12:08:37.409Z,33.71
2022-08-27T12:11:41.819Z,33.70
2022-08-27T12:14:34.887Z,33.81
2022-08-27T12:17:32.555Z,33.45
2022-08-27T12:20:51.887Z,33.18
2022-08-27T12:23:42.825Z,33.03
2022-08-27T12:26:34.796Z,33.21
2022-08-27T12:29:31.385Z,32.89
2022-08-27T12:32:29.025Z,32.77
2022-08-27T12:35:16.822Z,32.84
2022-08-27T12:37:57.761Z,33.06
2022-08-27T12:40:38.385Z,33.23
2022-08-27T12:43:24.809Z,33.40
2022-08-27T12:46:02.280Z,33.49
2022-08-27T12:48:55.435Z,33.55
2022-08-27T12:51:33.786Z,33.35
2022-08-27T12:54:39.348Z,33.34
2022-08-27T12:57:37.555Z,33.47
2022-08-27T13:00:22.125Z,33.67
2022-08-27T13:03:31.283Z,33.36
2022-08-27T13:06:00.951Z,33.15
2022-08-27T13:08:35.150Z,33.30
2022-08-27T13:11:28.558Z,33.70
2022-08-27T13:14:16.634Z,33.57
2022-08-27T13:16:55.644Z,33.74
2022-08-27T13:19:29.969Z,33.67
2022-08-27T13:21:57.973Z,33.81
2022-08-27T13:24:44.990Z,33.41
2022-08-27T13:27:12.117Z,33.43
2022-08-27T13:29:40.942Z,33.31
2022-08-27T13:32:08.847Z,33.01
2022-08-27T13:34:41.074Z,32.98
2022-08-27T13:37:36.840Z,33.28
2022-08-27T13:40:04.980Z,33.12
2022-08-27T13:42:32.183Z,32.82
2022-08-27T13:45:05.895Z,32.67
2022-08-27T13:47:46.519Z,32.87
2022-08-27T13:50:30.230Z,32.98
2022-08-27T13:53:29.395Z,32.60
2022-08-27T13:55:58.834Z,32.59
2022-08-27T13:58:31.048Z,32.69
2022-08-27T14:01:31.393Z,32.78
2022-08-27T14:04:09.968Z,32.70
2022-08-27T14:06:45.304Z,32.72
2022-08-27T14:09:25.364Z,32.76
2022-08-27T14:12:06.545Z,32.83
2022-08-27T14:14:41.900Z,33.05
2022-08-27T14:17:29.709Z,32.87
2022-08-27T14:20:05.089Z,32.80
2022-08-27T14:22:36.483Z,32.88
2022-08-27T14:25:04.463Z,32.71
2022-08-27T14:27:32.073Z,32.50
2022-08-27T14:29:59.282Z,32.38
2022-08-27T14:32:26.405Z,32.46
2022-08-27T14:34:53.581Z,32.48
2022-08-27T14:37:20.720Z,32.65
2022-08-27T14:39:47.799Z,32.47
2022-08-27T14:42:15.188Z,32.29
2022-08-27T14:44:42.294Z,32.30
2022-08-27T14:47:11.383Z,32.11
2022-08-27T14:49:44.009Z,32.12
2022-08-27T14:52:13.431Z,32.07
2022-08-27T14:54:42.224Z,31.94
2022-08-27T14:57:10.039Z,32.21
2022-08-27T14:59:38.486Z,32.00
2022-08-27T15:02:11.051Z,32.21
2022-08-27T15:04:38.457Z,32.05
2022-08-27T15:07:06.511Z,31.86
2022-08-27T15:09:33.598Z,31.73
2022-08-27T15:12:00.684Z,31.74
2022-08-27T15:14:32.208Z,31.74
2022-08-27T15:17:00.505Z,31.67
2022-08-27T15:19:29.757Z,31.51
2022-08-27T15:22:16.812Z,31.42
2022-08-27T15:24:50.527Z,31.38
2022-08-27T15:27:17.659Z,31.56
2022-08-27T15:29:45.033Z,31.49
2022-08-27T15:32:34.461Z,31.71
2022-08-27T15:35:07.965Z,31.69
2022-08-27T15:37:35.799Z,31.61
2022-08-27T15:40:04.298Z,31.66
2022-08-27T15:42:31.399Z,31.50
2022-08-27T15:44:58.761Z,31.43
2022-08-27T15:47:26.353Z,31.33
2022-08-27T15:49:53.470Z,31.32
2022-08-27T15:52:22.255Z,31.24
2022-08-27T15:54:50.192Z,31.19
2022-08-27T15:57:19.615Z,31.11
2022-08-27T15:59:47.112Z,31.20
2022-08-27T16:02:22.049Z,31.21
2022-08-27T16:04:49.942Z,31.16
2022-08-27T16:07:20.152Z,31.00
2022-08-27T16:09:49.433Z,30.88
2022-08-27T16:12:26.900Z,30.97
2022-08-27T16:14:56.057Z,30.75
2022-08-27T16:17:23.833Z,30.50
2022-08-27T16:19:50.877Z,30.60
2022-08-27T16:22:17.909Z,30.57
2022-08-27T16:24:45.251Z,30.58
2022-08-27T16:27:12.351Z,30.47
2022-08-27T16:29:39.514Z,30.44
2022-08-27T16:32:11.392Z,30.29
2022-08-27T16:34:39.392Z,30.29
2022-08-27T16:37:06.417Z,30.25
2022-08-27T16:39:36.403Z,30.19
2022-08-27T16:42:10.150Z,30.00
2022-08-27T16:44:38.640Z,30.06
2022-08-27T16:47:08.764Z,30.03
2022-08-27T16:49:54.717Z,30.01
2022-08-27T16:52:23.573Z,29.93
2022-08-27T16:54:51.978Z,29.79
2022-08-27T16:57:19.430Z,29.70
2022-08-27T16:59:46.520Z,29.48
2022-08-27T17:02:30.103Z,29.43
2022-08-27T17:05:17.723Z,29.40
2022-08-27T17:07:48.796Z,29.59
2022-08-27T17:10:18.469Z,29.38
2022-08-27T17:12:47.167Z,29.27
2022-08-27T17:15:16.820Z,29.20
2022-08-27T17:17:44.539Z,29.11
2022-08-27T17:20:12.115Z,29.01
2022-08-27T17:22:39.466Z,28.95
2022-08-27T17:25:08.260Z,29.03
2022-08-27T17:27:35.498Z,29.10
2022-08-27T17:30:02.689Z,28.86
2022-08-27T17:32:34.835Z,28.85
2022-08-27T17:35:05.887Z,28.90
2022-08-27T17:37:34.038Z,28.76
2022-08-27T17:40:01.554Z,28.77
2022-08-27T17:42:29.631Z,28.81
2022-08-27T17:44:57.439Z,28.67
2022-08-27T17:47:25.090Z,28.62
2022-08-27T17:49:52.993Z,28.58
2022-08-27T17:52:20.824Z,28.55
2022-08-27T17:54:52.581Z,28.45
2022-08-27T17:57:41.338Z,28.41
2022-08-27T18:00:12.661Z,28.27
2022-08-27T18:02:47.508Z,28.30
2022-08-27T18:05:18.332Z,28.24
2022-08-27T18:07:46.615Z,28.19
2022-08-27T18:10:23.773Z,28.09
2022-08-27T18:12:55.569Z,27.97
2022-08-27T18:15:29.572Z,27.90
2022-08-27T18:17:57.980Z,27.99
2022-08-27T18:20:28.821Z,27.92
2022-08-27T18:22:56.667Z,27.98
2022-08-27T18:25:26.649Z,27.79
2022-08-27T18:27:58.609Z,27.82
2022-08-27T18:30:26.447Z,27.77
2022-08-27T18:32:54.081Z,27.73
2022-08-27T18:35:29.020Z,27.60
2022-08-27T18:37:56.525Z,27.64
2022-08-27T18:40:28.156Z,27.52
2022-08-27T18:42:56.346Z,27.50
2022-08-27T18:45:28.566Z,27.45
2022-08-27T18:47:59.215Z,27.26
2022-08-27T18:50:27.048Z,27.23
2022-08-27T18:52:56.727Z,27.30
2022-08-27T18:55:28.285Z,27.00
2022-08-27T18:57:55.560Z,27.00
2022-08-27T19:00:22.880Z,26.96
2022-08-27T19:02:52.681Z,26.94
2022-08-27T19:05:26.693Z,26.92
2022-08-27T19:07:54.997Z,26.95
2022-08-27T19:10:22.152Z,26.82
2022-08-27T19:12:49.317Z,26.80
2022-08-27T19:15:16.888Z,26.82
2022-08-27T19:17:50.838Z,26.82
2022-08-27T19:20:18.755Z,26.88
2022-08-27T19:22:47.245Z,26.85
2022-08-27T19:25:15.986Z,26.85
2022-08-27T19:27:45.179Z,26.59
2022-08-27T19:30:14.440Z,26.66
2022-08-27T19:32:41.683Z,26.59
2022-08-27T19:35:09.997Z,26.40
2022-08-27T19:37:43.573Z,26.37
2022-08-27T19:40:13.322Z,26.48
2022-08-27T19:42:41.555Z,26.44
2022-08-27T19:45:09.072Z,26.22
2022-08-27T19:47:37.592Z,26.59
2022-08-27T19:50:05.398Z,26.32
2022-08-27T19:52:32.410Z,26.27
2022-08-27T19:55:14.959Z,26.36
2022-08-27T19:57:43.440Z,26.25
2022-08-27T20:00:14.290Z,26.14
2022-08-27T20:02:41.255Z,26.17
2022-08-27T20:05:24.125Z,26.14
2022-08-27T20:07:52.840Z,25.93
2022-08-27T20:10:25.872Z,26.02
2022-08-27T20:12:59.635Z,25.82
2022-08-27T20:15:27.176Z,25.89
2022-08-27T20:17:54.655Z,25.94
2022-08-27T20:20:24.725Z,25.99
2022-08-27T20:22:52.480Z,26.00
2022-08-27T20:25:19.813Z,25.99
2022-08-27T20:27:47.713Z,25.82
2022-08-27T20:30:17.555Z,25.76
2022-08-27T20:32:46.774Z,25.63
2022-08-27T20:35:15.280Z,25.60
2022-08-27T20:37:42.797Z,25.57
2022-08-27T20:40:20.038Z,25.53
2022-08-27T20:42:47.189Z,25.49
2022-08-27T20:45:15.930Z,25.48
2022-08-27T20:47:46.007Z,25.60
2022-08-27T20:50:15.123Z,25.53
2022-08-27T20:52:44.758Z,25.37
2022-08-27T20:55:14.247Z,25.32
2022-08-27T20:58:05.819Z,25.32
2022-08-27T21:00:35.605Z,25.44
2022-08-27T21:03:02.831Z,25.51
2022-08-27T21:05:34.508Z,25.43
2022-08-27T21:08:03.694Z,25.53
2022-08-27T21:10:30.835Z,25.41
2022-08-27T21:12:58.307Z,25.37
2022-08-27T21:15:25.647Z,25.31
2022-08-27T21:17:52.776Z,25.38
2022-08-27T21:20:19.866Z,25.23
2022-08-27T21:22:46.875Z,25.29
2022-08-27T21:25:14.659Z,25.41
2022-08-27T21:27:44.648Z,25.42
2022-08-27T21:30:12.806Z,25.30
2022-08-27T21:32:39.799Z,25.28
2022-08-27T21:35:07.222Z,25.21
2022-08-27T21:37:35.472Z,25.20
2022-08-27T21:40:05.113Z,25.20
2022-08-27T21:42:32.280Z,25.33
2022-08-27T21:44:59.261Z,25.20
2022-08-27T21:47:26.747Z,25.18
2022-08-27T21:49:53.765Z,25.21
2022-08-27T21:52:20.793Z,25.15
2022-08-27T21:54:47.777Z,25.08
2022-08-27T21:57:15.808Z,25.10
2022-08-27T21:59:48.170Z,24.95
2022-08-27T22:02:38.892Z,24.99
2022-08-27T22:05:05.142Z,24.98
2022-08-27T22:07:32.153Z,25.00
2022-08-27T22:09:59.229Z,24.83
2022-08-27T22:12:26.418Z,24.90
2022-08-27T22:14:53.526Z,24.84
2022-08-27T22:17:20.518Z,24.87
2022-08-27T22:19:47.504Z,24.94
2022-08-27T22:22:14.552Z,24.87
2022-08-27T22:24:43.181Z,24.94
2022-08-27T22:27:10.604Z,24.95
2022-08-27T22:29:37.665Z,24.79
2022-08-27T22:32:07.593Z,24.80
2022-08-27T22:34:36.169Z,24.81
2022-08-27T22:37:04.321Z,24.85
2022-08-27T22:39:31.512Z,24.88
2022-08-27T22:41:58.745Z,24.80
2022-08-27T22:44:29.365Z,24.74
2022-08-27T22:46:57.172Z,24.77
2022-08-27T22:49:24.352Z,24.84
2022-08-27T22:51:51.401Z,24.75
2022-08-27T22:54:18.994Z,24.73
2022-08-27T22:56:46.103Z,24.68
2022-08-27T22:59:13.386Z,24.68
2022-08-27T23:01:41.195Z,24.58
2022-08-27T23:04:08.642Z,24.60
2022-08-27T23:06:35.768Z,24.59
2022-08-27T23:09:02.918Z,24.42
2022-08-27T23:11:31.853Z,24.48
2022-08-27T23:14:02.178Z,24.45
2022-08-27T23:16:31.844Z,24.49
2022-08-27T23:18:59.003Z,24.45
2022-08-27T23:21:26.363Z,24.40
2022-08-27T23:23:53.382Z,24.42
2022-08-27T23:26:39.378Z,24.44
2022-08-27T23:29:07.358Z,24.43
2022-08-27T23:31:34.689Z,24.34
2022-08-27T23:34:01.766Z,24.33
2022-08-27T23:36:29.378Z,24.25
2022-08-27T23:38:58.316Z,24.31
2022-08-27T23:41:26.905Z,24.13
2022-08-27T23:43:54.373Z,24.15
2022-08-27T23:46:21.620Z,24.10
2022-08-27T23:48:48.713Z,24.02
2022-08-27T23:51:15.806Z,24.07
2022-08-27T23:53:42.856Z,24.08
2022-08-27T23:56:10.781Z,24.04
2022-08-27T23:58:37.828Z,23.98
